Time;durP1;ratioP1;P1;durP2;ratioP2;P2;SDS_P1;SDS_P2;PMS_P1;PMS_P2;Temp;Humidity;BMP_temperature;BMP_pressure;BME280_temperature;BME280_humidity;BME280_pressure;Samples;Min_cycle;Max_cycle;Signal;HPM_P1;HPM_P2
2022/12/23 00:00:21;;;;;;;38.25;16.35;;;28.60;87.80;;;;;;5107238;28;20065;-55
2022/12/23 00:02:47;;;;;;;25.17;14.07;;;28.60;88.10;;;;;;5107918;28;20320;-55
2022/12/23 00:05:14;;;;;;;23.17;13.73;;;28.60;87.90;;;;;;5107134;28;20034;-54
2022/12/23 00:07:41;;;;;;;29.75;11.65;;;28.50;87.90;;;;;;5107906;28;20089;-55
2022/12/23 00:10:08;;;;;;;24.88;12.32;;;28.50;88.00;;;;;;5106964;28;20244;-57
2022/12/23 00:15:24;;;;;;;32.33;13.25;;;28.50;88.00;;;;;;5077958;28;20031;-56
2022/12/23 00:17:50;;;;;;;25.00;11.32;;;28.50;88.10;;;;;;5107355;28;20028;-51
2022/12/23 00:20:17;;;;;;;36.03;10.57;;;28.50;88.40;;;;;;5107499;28;20027;-55
2022/12/23 00:25:40;;;;;;;23.50;9.73;;;28.60;88.20;;;;;;5107073;28;20338;-54
2022/12/23 00:28:16;;;;;;;22.77;10.38;;;28.50;88.30;;;;;;5106971;28;20027;-55
2022/12/23 00:31:01;;;;;;;21.30;14.15;;;28.50;88.30;;;;;;5106968;28;20032;-56
2022/12/23 00:33:30;;;;;;;23.17;15.15;;;28.50;88.30;;;;;;5106825;28;20023;-56
2022/12/23 00:35:57;;;;;;;32.15;15.85;;;28.50;88.40;;;;;;5106938;28;20032;-55
2022/12/23 00:44:04;;;;;;;26.88;11.95;;;28.50;88.90;;;;;;5106317;28;20086;-54
2022/12/23 00:46:32;;;;;;;26.58;8.15;;;28.50;88.80;;;;;;5092141;28;20047;-57
2022/12/23 00:51:43;;;;;;;17.73;8.35;;;28.10;90.00;;;;;;5106230;28;20042;-57
2022/12/23 00:54:10;;;;;;;18.25;7.63;;;28.00;90.30;;;;;;5103096;28;20091;-56
2022/12/23 00:56:39;;;;;;;18.83;7.20;;;27.80;90.40;;;;;;5111153;28;20024;-59
2022/12/23 00:59:05;;;;;;;18.48;7.82;;;27.80;90.50;;;;;;5104659;28;20024;-55
2022/12/23 01:07:06;;;;;;;16.98;7.78;;;27.90;90.40;;;;;;5124814;28;20103;-57
2022/12/23 01:09:33;;;;;;;17.92;7.72;;;28.00;90.30;;;;;;5124620;28;20181;-57
2022/12/23 01:11:59;;;;;;;19.67;9.77;;;28.00;90.20;;;;;;5125633;28;20200;-57
2022/12/23 01:14:26;;;;;;;16.60;8.68;;;28.10;90.10;;;;;;5126232;28;20019;-56
2022/12/23 01:16:53;;;;;;;21.80;10.13;;;28.10;90.00;;;;;;5123737;28;20042;-54
2022/12/23 01:19:20;;;;;;;21.48;13.13;;;28.20;89.90;;;;;;5124179;28;20078;-57
2022/12/23 01:21:47;;;;;;;21.65;12.10;;;28.20;89.80;;;;;;5124006;28;20087;-55
2022/12/23 01:24:16;;;;;;;19.55;9.85;;;28.30;89.90;;;;;;5123936;28;20023;-56
2022/12/23 01:26:44;;;;;;;23.90;10.15;;;28.30;89.80;;;;;;5123766;28;20474;-53
2022/12/23 01:29:11;;;;;;;23.83;9.82;;;28.20;89.70;;;;;;5124258;28;20038;-58
2022/12/23 01:31:37;;;;;;;25.27;10.18;;;28.30;89.80;;;;;;5125455;28;20023;-59
2022/12/23 01:34:04;;;;;;;23.65;9.75;;;28.30;89.60;;;;;;5108121;28;20020;-56
2022/12/23 01:36:31;;;;;;;24.92;8.85;;;28.30;89.60;;;;;;5125981;28;20024;-56
2022/12/23 01:38:59;;;;;;;21.75;9.23;;;28.30;89.50;;;;;;5125687;28;20296;-58
2022/12/23 01:44:49;;;;;;;18.38;10.45;;;28.30;89.50;;;;;;5125795;28;20057;-57
2022/12/23 01:47:27;;;;;;;27.90;14.52;;;28.30;89.40;;;;;;5126576;28;20023;-56
2022/12/23 01:50:07;;;;;;;22.35;10.85;;;28.30;89.30;;;;;;5107718;28;20315;-57
2022/12/23 01:52:46;;;;;;;19.33;10.50;;;28.30;89.30;;;;;;5126139;28;20215;-56
2022/12/23 01:55:18;;;;;;;16.50;8.68;;;28.30;89.30;;;;;;5126041;28;20019;-57
2022/12/23 01:57:46;;;;;;;26.63;10.70;;;28.30;89.10;;;;;;5126220;28;20023;-56
2022/12/23 02:05:46;;;;;;;24.02;10.55;;;28.20;88.70;;;;;;5125507;28;20055;-56
2022/12/23 02:11:26;;;;;;;18.92;9.63;;;28.30;88.70;;;;;;5125246;28;20323;-59
2022/12/23 02:17:48;;;;;;;18.15;9.82;;;28.20;88.70;;;;;;5125251;28;20076;-59
2022/12/23 02:20:44;;;;;;;17.23;9.38;;;28.20;88.60;;;;;;5114864;28;20039;-59
2022/12/23 02:23:17;;;;;;;20.63;10.02;;;28.20;88.50;;;;;;5125290;28;20095;-62
2022/12/23 02:26:02;;;;;;;17.80;11.80;;;28.10;88.50;;;;;;5125045;28;20068;-59
2022/12/23 02:28:53;;;;;;;20.50;15.15;;;28.10;88.40;;;;;;5125078;28;20097;-57
2022/12/23 02:31:43;;;;;;;22.23;14.32;;;28.10;88.40;;;;;;5125096;28;20040;-55
2022/12/23 02:34:35;;;;;;;18.85;12.30;;;28.10;88.40;;;;;;5125101;28;20022;-56
2022/12/23 02:37:01;;;;;;;;;;;28.10;88.40;;;;;;5125589;28;20089;-57
2022/12/23 02:39:37;;;;;;;17.20;10.43;;;28.10;88.40;;;;;;5124834;28;19904;-58
2022/12/23 02:42:11;;;;;;;27.33;17.23;;;28.00;88.40;;;;;;5124522;28;20035;-57
2022/12/23 02:44:51;;;;;;;51.83;38.33;;;28.00;88.40;;;;;;5125089;28;20020;-57
2022/12/23 02:47:25;;;;;;;33.45;23.13;;;28.00;88.20;;;;;;5124932;28;20059;-51
2022/12/23 02:49:56;;;;;;;27.90;19.50;;;28.00;88.30;;;;;;5124656;28;20054;-59
2022/12/23 02:52:29;;;;;;;23.27;14.63;;;28.00;88.30;;;;;;5125070;28;20040;-57
2022/12/23 02:55:08;;;;;;;22.95;12.50;;;28.00;88.10;;;;;;5124867;28;20015;-58
2022/12/23 02:57:41;;;;;;;20.80;11.02;;;28.00;88.00;;;;;;5124808;28;20292;-63
2022/12/23 03:00:12;;;;;;;18.67;10.45;;;28.00;88.00;;;;;;5124306;28;20042;-56
2022/12/23 03:02:40;;;;;;;17.85;9.10;;;28.00;87.90;;;;;;5106449;28;20084;-55
2022/12/23 03:05:29;;;;;;;15.82;8.93;;;28.00;87.90;;;;;;5124650;28;20061;-58
2022/12/23 03:08:01;;;;;;;15.05;8.98;;;27.90;87.90;;;;;;5111311;28;20047;-57
2022/12/23 03:10:56;;;;;;;18.35;9.10;;;28.00;87.90;;;;;;5124553;28;20024;-55
2022/12/23 03:13:45;;;;;;;13.68;8.38;;;27.90;87.90;;;;;;5124760;28;20031;-61
2022/12/23 03:16:37;;;;;;;13.70;7.30;;;27.90;87.90;;;;;;5124343;28;20028;-56
2022/12/23 03:19:53;;;;;;;14.35;7.45;;;27.90;88.00;;;;;;5124189;28;20042;-56
2022/12/23 03:22:35;;;;;;;14.55;7.35;;;27.90;87.90;;;;;;5087224;28;20080;-56
2022/12/23 03:25:33;;;;;;;26.30;7.57;;;27.90;87.80;;;;;;5113602;28;20100;-53
2022/12/23 03:28:20;;;;;;;19.88;6.97;;;27.90;88.00;;;;;;5100853;28;20046;-52
2022/12/23 03:30:53;;;;;;;17.63;7.20;;;27.90;88.00;;;;;;5103914;28;20032;-55
2022/12/23 03:33:26;;;;;;;11.70;6.50;;;27.90;87.90;;;;;;5083579;28;20069;-54
2022/12/23 03:36:01;;;;;;;11.52;6.05;;;27.90;88.20;;;;;;5065173;28;20024;-54
2022/12/23 03:38:29;;;;;;;11.40;6.28;;;27.90;87.80;;;;;;5088084;28;20331;-55
2022/12/23 03:41:01;;;;;;;14.50;6.53;;;27.90;87.70;;;;;;5094684;28;20086;-56
2022/12/23 03:43:34;;;;;;;11.65;6.28;;;27.90;87.80;;;;;;5117292;28;20022;-57
2022/12/23 03:46:05;;;;;;;13.05;6.45;;;27.90;87.80;;;;;;5123993;28;20046;-56
2022/12/23 03:48:52;;;;;;;14.70;6.43;;;27.90;87.60;;;;;;5123611;28;20042;-55
2022/12/23 03:51:33;;;;;;;17.45;5.72;;;27.90;87.60;;;;;;5126714;28;20461;-57
2022/12/23 03:54:18;;;;;;;16.30;6.03;;;27.90;87.40;;;;;;5123959;28;20011;-56
2022/12/23 03:57:00;;;;;;;10.32;5.85;;;27.90;87.40;;;;;;5116209;28;20063;-55
2022/12/23 03:59:40;;;;;;;12.52;6.22;;;27.90;87.40;;;;;;5106977;28;20019;-55
2022/12/23 04:02:24;;;;;;;13.43;5.60;;;28.00;87.50;;;;;;5106941;28;20039;-56
2022/12/23 04:05:12;;;;;;;11.70;5.97;;;27.90;87.30;;;;;;5106907;28;20023;-56
2022/12/23 04:07:42;;;;;;;13.07;5.97;;;27.90;87.20;;;;;;5107195;28;20040;-55
2022/12/23 04:10:09;;;;;;;9.55;5.60;;;27.90;87.20;;;;;;5106798;28;20027;-54
2022/12/23 04:12:37;;;;;;;11.02;5.72;;;27.90;87.10;;;;;;5106972;28;20032;-56
2022/12/23 04:15:04;;;;;;;12.52;6.00;;;27.90;87.10;;;;;;5106534;28;20024;-56
2022/12/23 04:17:31;;;;;;;10.60;5.93;;;27.90;87.20;;;;;;5107012;28;20023;-55
2022/12/23 04:19:58;;;;;;;11.60;5.55;;;27.90;87.00;;;;;;5097927;28;20047;-54
2022/12/23 04:22:24;;;;;;;12.52;5.50;;;27.90;87.40;;;;;;5095537;28;20201;-55
2022/12/23 04:24:51;;;;;;;11.85;5.72;;;27.90;86.80;;;;;;5086266;28;20029;-55
2022/12/23 04:27:17;;;;;;;9.32;5.55;;;27.90;86.80;;;;;;5086439;28;20024;-49
2022/12/23 04:29:45;;;;;;;10.35;5.35;;;27.90;86.80;;;;;;5086205;28;20063;-55
2022/12/23 04:32:12;;;;;;;11.52;5.88;;;27.90;86.50;;;;;;5086253;28;20033;-55
2022/12/23 04:34:38;;;;;;;13.82;6.07;;;27.90;86.40;;;;;;5085891;28;20186;-51
2022/12/23 04:37:05;;;;;;;14.38;5.82;;;27.90;86.40;;;;;;5086277;28;20063;-54
2022/12/23 04:39:31;;;;;;;10.68;5.65;;;27.90;86.50;;;;;;5085981;28;20024;-55
2022/12/23 04:41:58;;;;;;;13.25;5.60;;;27.90;86.20;;;;;;5086148;28;20047;-58
2022/12/23 04:44:24;;;;;;;8.77;5.57;;;27.90;86.20;;;;;;5085910;28;20025;-58
2022/12/23 04:46:51;;;;;;;8.57;5.57;;;27.90;86.50;;;;;;5068247;28;20032;-55
2022/12/23 04:49:17;;;;;;;10.48;5.45;;;27.90;86.20;;;;;;5085759;28;20052;-54
2022/12/23 04:51:50;;;;;;;17.25;5.97;;;27.90;86.20;;;;;;5086210;28;20032;-54
2022/12/23 04:54:28;;;;;;;;;;;27.90;85.90;;;;;;5068963;28;20017;-54
2022/12/23 04:56:54;;;;;;;8.88;5.47;;;27.90;86.00;;;;;;5084461;28;19908;-55
2022/12/23 04:59:21;;;;;;;10.32;5.53;;;27.80;85.80;;;;;;5086105;28;20024;-54
2022/12/23 05:01:48;;;;;;;11.45;5.57;;;27.80;85.70;;;;;;5084635;28;20296;-56
2022/12/23 05:04:14;;;;;;;11.98;5.72;;;27.80;85.80;;;;;;5085281;28;20027;-54
2022/12/23 05:06:41;;;;;;;9.25;5.57;;;27.80;85.90;;;;;;5085642;28;20036;-55
2022/12/23 05:09:08;;;;;;;9.65;5.50;;;27.80;85.90;;;;;;5085539;28;20185;-55
2022/12/23 05:11:34;;;;;;;9.80;5.60;;;27.80;85.80;;;;;;5085208;28;20262;-54
2022/12/23 05:14:01;;;;;;;7.75;5.28;;;27.80;85.50;;;;;;5077100;28;20024;-55
2022/12/23 05:16:29;;;;;;;9.70;5.63;;;27.80;85.70;;;;;;5085294;28;20040;-54
2022/12/23 05:18:56;;;;;;;10.35;5.65;;;27.80;85.60;;;;;;5084893;28;20020;-56
2022/12/23 05:21:24;;;;;;;10.23;5.57;;;27.80;85.80;;;;;;5085333;28;20191;-54
2022/12/23 05:23:51;;;;;;;10.38;5.63;;;27.80;85.80;;;;;;5085144;28;20371;-55
2022/12/23 05:26:18;;;;;;;9.13;5.75;;;27.80;85.70;;;;;;5084871;28;20036;-60
2022/12/23 05:28:44;;;;;;;9.23;6.40;;;27.80;85.90;;;;;;5084962;28;20130;-57
2022/12/23 05:31:11;;;;;;;12.70;6.00;;;27.80;86.10;;;;;;5084820;28;20033;-55
2022/12/23 05:33:38;;;;;;;9.48;5.68;;;27.80;86.10;;;;;;5084709;28;20020;-55
2022/12/23 05:36:05;;;;;;;10.02;5.65;;;27.80;86.00;;;;;;5085058;28;20201;-58
2022/12/23 05:38:32;;;;;;;11.18;5.82;;;27.80;85.90;;;;;;5084716;28;20119;-55
2022/12/23 05:40:58;;;;;;;7.07;5.20;;;27.80;85.90;;;;;;5084591;28;20028;-54
2022/12/23 05:43:25;;;;;;;9.98;5.53;;;27.80;85.80;;;;;;5084756;28;20035;-55
2022/12/23 05:45:51;;;;;;;10.32;5.32;;;27.80;85.60;;;;;;5084759;28;20032;-56
2022/12/23 05:48:18;;;;;;;11.38;5.97;;;27.80;85.80;;;;;;5084348;28;20208;-52
2022/12/23 05:50:48;;;;;;;11.23;6.07;;;27.80;85.40;;;;;;5084383;28;20107;-54
2022/12/23 05:53:14;;;;;;;9.50;5.80;;;27.80;85.70;;;;;;5084509;28;20092;-55
2022/12/23 05:55:41;;;;;;;11.93;5.32;;;27.80;85.40;;;;;;5084324;28;20047;-56
2022/12/23 05:58:07;;;;;;;8.88;5.57;;;27.80;85.60;;;;;;5084424;28;20095;-56
2022/12/23 06:00:34;;;;;;;10.77;5.82;;;27.70;85.40;;;;;;5084162;28;20091;-56
2022/12/23 06:03:01;;;;;;;9.00;5.72;;;27.70;85.50;;;;;;5084155;28;20043;-54
2022/12/23 06:05:27;;;;;;;12.80;6.03;;;27.70;85.60;;;;;;5084172;28;20271;-55
2022/12/23 06:07:54;;;;;;;9.93;5.43;;;27.70;85.70;;;;;;5084605;28;20021;-55
2022/12/23 06:10:20;;;;;;;15.55;5.78;;;27.70;85.80;;;;;;5084214;28;20064;-55
2022/12/23 06:12:47;;;;;;;8.70;5.72;;;27.70;85.90;;;;;;5084128;28;20043;-57
2022/12/23 06:15:14;;;;;;;10.82;6.20;;;27.70;85.90;;;;;;5084071;28;20059;-55
2022/12/23 06:17:41;;;;;;;10.00;5.60;;;27.60;86.10;;;;;;5084550;28;20058;-55
2022/12/23 06:20:08;;;;;;;11.38;5.88;;;27.60;86.00;;;;;;5083903;28;20021;-55
2022/12/23 06:22:34;;;;;;;11.50;5.07;;;27.60;86.10;;;;;;5084538;28;20035;-56
2022/12/23 06:25:01;;;;;;;10.65;5.80;;;27.60;86.10;;;;;;5083993;28;20020;-55
2022/12/23 06:27:28;;;;;;;9.82;5.80;;;27.60;86.50;;;;;;5083992;28;20032;-54
2022/12/23 06:29:55;;;;;;;11.88;6.18;;;27.60;86.20;;;;;;5083867;28;20024;-56
2022/12/23 06:32:21;;;;;;;11.55;5.82;;;27.60;86.30;;;;;;5084161;28;20225;-55
2022/12/23 06:34:52;;;;;;;13.90;5.78;;;27.50;86.30;;;;;;5083687;28;20225;-54
2022/12/23 06:37:20;;;;;;;12.82;5.78;;;27.50;86.30;;;;;;5084152;28;20024;-54
2022/12/23 06:39:46;;;;;;;10.77;5.60;;;27.50;86.80;;;;;;5083847;28;20040;-56
2022/12/23 06:42:13;;;;;;;8.65;5.22;;;27.50;86.40;;;;;;5083992;28;20100;-55
2022/12/23 06:44:39;;;;;;;11.32;6.03;;;27.50;86.30;;;;;;5083768;28;20024;-55
2022/12/23 06:47:06;;;;;;;9.85;6.07;;;27.50;86.20;;;;;;5084006;28;20200;-54
2022/12/23 06:49:32;;;;;;;9.48;5.78;;;27.50;86.30;;;;;;5083431;28;20048;-54
2022/12/23 06:51:59;;;;;;;10.02;5.68;;;27.50;86.30;;;;;;5083823;28;20032;-54
2022/12/23 06:54:25;;;;;;;9.43;5.70;;;27.40;86.20;;;;;;5083676;28;20044;-55
2022/12/23 06:56:52;;;;;;;12.48;5.43;;;27.40;86.30;;;;;;5083811;28;20039;-55
2022/12/23 06:59:19;;;;;;;13.52;6.28;;;27.50;86.30;;;;;;5083798;28;20079;-56
2022/12/23 07:01:46;;;;;;;10.73;6.05;;;27.40;86.10;;;;;;5083786;28;20025;-57
2022/12/23 07:04:13;;;;;;;11.40;5.85;;;27.50;85.90;;;;;;5083382;28;20036;-54
2022/12/23 07:06:40;;;;;;;12.48;6.05;;;27.40;86.00;;;;;;5083783;28;20264;-55
2022/12/23 07:09:06;;;;;;;9.52;5.60;;;27.40;86.00;;;;;;5083567;28;20025;-58
2022/12/23 07:11:33;;;;;;;13.38;5.88;;;27.40;86.00;;;;;;5083384;28;20081;-57
2022/12/23 07:14:00;;;;;;;11.35;5.70;;;27.40;86.10;;;;;;5083630;28;20032;-55
2022/12/23 07:16:27;;;;;;;8.77;5.93;;;27.40;86.10;;;;;;5083656;28;20024;-55
2022/12/23 07:18:53;;;;;;;13.43;5.65;;;27.40;86.10;;;;;;5083299;28;20058;-58
2022/12/23 07:21:20;;;;;;;9.70;5.88;;;27.40;86.10;;;;;;5083740;28;20025;-55
2022/12/23 07:23:46;;;;;;;9.93;5.32;;;27.30;86.00;;;;;;5083499;28;20044;-54
2022/12/23 07:26:13;;;;;;;8.35;5.72;;;27.40;86.20;;;;;;5085858;28;20367;-54
2022/12/23 07:28:39;;;;;;;12.25;5.85;;;27.30;86.10;;;;;;5087359;28;20413;-55
2022/12/23 07:31:07;;;;;;;8.85;5.93;;;27.30;86.20;;;;;;5087210;28;20056;-55
2022/12/23 07:33:33;;;;;;;9.80;5.63;;;27.30;86.30;;;;;;5087043;28;20024;-53
2022/12/23 07:36:00;;;;;;;10.13;5.70;;;27.30;86.30;;;;;;5087002;28;20036;-55
2022/12/23 07:38:26;;;;;;;10.25;5.43;;;27.30;86.30;;;;;;5102781;28;20024;-57
2022/12/23 07:40:53;;;;;;;10.00;5.32;;;27.30;86.30;;;;;;5107430;28;20023;-53
2022/12/23 07:43:19;;;;;;;10.27;6.03;;;27.30;86.20;;;;;;5107287;28;20024;-55
2022/12/23 07:45:46;;;;;;;8.82;5.55;;;27.30;86.10;;;;;;5107330;28;20023;-56
2022/12/23 07:48:13;;;;;;;10.35;5.55;;;27.30;85.90;;;;;;5107030;28;20024;-55
2022/12/23 07:50:39;;;;;;;10.40;5.85;;;27.30;85.90;;;;;;5106766;28;20028;-56
2022/12/23 07:53:07;;;;;;;9.10;5.53;;;27.30;85.90;;;;;;5107197;28;20020;-56
2022/12/23 07:55:34;;;;;;;10.32;5.53;;;27.30;85.70;;;;;;5107154;28;20034;-56
2022/12/23 07:58:01;;;;;;;9.52;5.38;;;27.30;85.50;;;;;;5106878;28;20056;-55
2022/12/23 08:00:28;;;;;;;9.55;5.85;;;27.30;85.50;;;;;;5106835;28;20020;-56
2022/12/23 08:02:54;;;;;;;10.40;5.53;;;27.30;85.30;;;;;;5107406;28;20043;-56
2022/12/23 08:05:21;;;;;;;11.05;5.35;;;27.30;85.40;;;;;;5106766;28;20335;-56
2022/12/23 08:07:48;;;;;;;9.95;5.68;;;27.30;85.40;;;;;;5107339;28;20032;-56
2022/12/23 08:10:15;;;;;;;12.13;6.00;;;27.30;85.30;;;;;;5106699;28;20028;-56
2022/12/23 08:12:42;;;;;;;11.00;5.53;;;27.30;85.30;;;;;;5106505;28;20032;-56
2022/12/23 08:15:09;;;;;;;29.05;5.55;;;27.20;85.20;;;;;;5106506;28;20070;-56
2022/12/23 08:17:35;;;;;;;11.00;5.85;;;27.20;85.10;;;;;;5106955;28;20099;-57
2022/12/23 08:20:02;;;;;;;7.45;5.68;;;27.20;85.00;;;;;;5106378;28;20081;-57
2022/12/23 08:22:31;;;;;;;12.10;5.93;;;27.30;84.90;;;;;;5106941;28;20087;-56
2022/12/23 08:24:58;;;;;;;9.60;5.40;;;27.30;85.10;;;;;;5106270;28;20039;-58
2022/12/23 08:27:25;;;;;;;11.02;6.22;;;27.30;84.80;;;;;;5106571;28;20099;-56
2022/12/23 08:29:52;;;;;;;11.23;5.53;;;27.20;84.70;;;;;;5106223;28;20042;-57
2022/12/23 08:32:18;;;;;;;10.65;5.85;;;27.20;84.60;;;;;;5106718;28;20107;-60
2022/12/23 08:34:45;;;;;;;8.70;5.75;;;27.30;84.60;;;;;;5106280;28;20032;-55
2022/12/23 08:37:11;;;;;;;8.82;5.30;;;27.30;84.50;;;;;;5106360;28;20025;-55
2022/12/23 08:39:38;;;;;;;10.50;5.70;;;27.30;84.70;;;;;;5106111;28;20024;-57
2022/12/23 08:42:05;;;;;;;10.73;5.85;;;27.30;84.30;;;;;;5106394;28;20035;-55
2022/12/23 08:44:31;;;;;;;10.63;6.13;;;27.20;84.50;;;;;;5106139;28;20332;-55
2022/12/23 08:46:58;;;;;;;11.38;6.00;;;27.20;84.50;;;;;;5105855;28;20036;-55
2022/12/23 08:49:24;;;;;;;11.85;6.07;;;27.20;84.50;;;;;;5105763;28;20101;-55
2022/12/23 08:51:51;;;;;;;9.10;5.70;;;27.20;84.70;;;;;;5106078;28;20123;-57
2022/12/23 08:54:19;;;;;;;12.15;6.25;;;27.20;84.80;;;;;;5106295;28;20089;-56
2022/12/23 08:56:45;;;;;;;9.20;6.00;;;27.20;85.00;;;;;;5105883;28;20059;-55
2022/12/23 08:59:14;;;;;;;12.20;6.68;;;27.20;85.30;;;;;;5105753;28;20091;-55
2022/12/23 09:01:40;;;;;;;9.18;5.85;;;27.20;85.30;;;;;;5105783;28;20031;-55
2022/12/23 09:04:07;;;;;;;12.25;5.80;;;27.20;85.40;;;;;;5105577;28;20034;-50
2022/12/23 09:06:41;;;;;;;11.20;6.72;;;27.20;85.60;;;;;;5105841;28;20046;-55
2022/12/23 09:09:09;;;;;;;11.35;6.15;;;27.20;85.70;;;;;;5105640;28;20040;-57
2022/12/23 09:11:36;;;;;;;12.02;6.07;;;27.20;85.60;;;;;;5105491;28;20095;-54
2022/12/23 09:14:04;;;;;;;8.60;6.00;;;27.10;85.70;;;;;;5105409;28;20032;-55
2022/12/23 09:16:30;;;;;;;11.70;6.28;;;27.10;85.60;;;;;;5105670;28;20362;-55
2022/12/23 09:18:57;;;;;;;12.32;6.38;;;27.10;85.70;;;;;;5105310;28;20024;-54
2022/12/23 09:21:24;;;;;;;12.93;6.50;;;27.10;85.70;;;;;;5105737;28;20189;-61
2022/12/23 09:23:51;;;;;;;13.65;6.20;;;27.10;85.70;;;;;;5105384;28;20036;-57
2022/12/23 09:26:24;;;;;;;14.20;5.85;;;27.10;86.10;;;;;;5105245;28;20031;-57
2022/12/23 09:28:50;;;;;;;12.20;6.40;;;27.10;85.60;;;;;;5105318;28;20112;-56
2022/12/23 09:31:18;;;;;;;12.18;5.85;;;27.10;85.70;;;;;;5105312;28;20059;-56
2022/12/23 09:33:47;;;;;;;11.65;6.25;;;27.00;85.50;;;;;;5104988;28;20019;-56
2022/12/23 09:36:14;;;;;;;10.60;5.90;;;27.10;85.60;;;;;;5105278;28;20087;-56
2022/12/23 09:38:41;;;;;;;11.90;5.95;;;27.00;85.70;;;;;;5105142;28;20028;-56
2022/12/23 09:41:35;;;;;;;11.18;5.80;;;27.00;85.60;;;;;;5104930;28;20080;-54
2022/12/23 09:44:22;;;;;;;13.15;5.70;;;27.00;85.20;;;;;;5105108;28;20032;-55
2022/12/23 09:46:53;;;;;;;9.50;5.15;;;27.10;85.20;;;;;;5105256;28;20035;-56
2022/12/23 09:49:21;;;;;;;12.48;5.65;;;27.00;85.20;;;;;;5104021;28;20067;-54
2022/12/23 09:51:51;;;;;;;11.50;5.63;;;27.00;85.30;;;;;;5104933;28;20316;-56
2022/12/23 09:54:25;;;;;;;12.38;5.80;;;27.00;85.40;;;;;;5105069;28;20087;-57
2022/12/23 09:56:53;;;;;;;11.18;5.88;;;26.90;85.40;;;;;;5104988;28;20181;-55
2022/12/23 09:59:54;;;;;;;12.88;5.30;;;26.90;85.40;;;;;;5104752;28;20077;-56
2022/12/23 10:02:20;;;;;;;10.13;5.60;;;26.90;85.50;;;;;;5104945;28;20035;-55
2022/12/23 10:04:49;;;;;;;9.38;6.05;;;26.90;85.30;;;;;;5104789;28;20028;-55
2022/12/23 10:07:47;;;;;;;16.02;6.28;;;26.90;85.50;;;;;;5104679;28;20073;-53
2022/12/23 10:10:30;;;;;;;11.55;5.90;;;26.90;85.30;;;;;;5104564;28;20056;-55
2022/12/23 10:12:59;;;;;;;13.98;6.13;;;26.90;85.20;;;;;;5104921;28;20032;-55
2022/12/23 10:15:41;;;;;;;12.00;5.85;;;26.90;85.20;;;;;;5104559;28;20034;-55
2022/12/23 10:18:53;;;;;;;11.27;6.05;;;26.90;84.90;;;;;;5104669;28;20324;-54
2022/12/23 10:21:26;;;;;;;16.20;6.40;;;26.90;84.80;;;;;;5096342;28;20324;-55
2022/12/23 10:23:54;;;;;;;10.95;6.25;;;26.90;84.70;;;;;;5104312;28;20091;-55
2022/12/23 10:26:29;;;;;;;13.45;6.05;;;26.90;84.80;;;;;;5104397;28;20095;-55
2022/12/23 10:29:17;;;;;;;10.57;5.82;;;26.90;84.70;;;;;;5103965;28;20028;-55
2022/12/23 10:31:50;;;;;;;16.80;6.47;;;26.90;84.80;;;;;;5104146;28;20217;-54
2022/12/23 10:34:23;;;;;;;13.18;6.28;;;26.90;84.70;;;;;;5104130;28;20028;-54
2022/12/23 10:37:01;;;;;;;13.38;6.60;;;26.90;84.70;;;;;;5104191;28;20054;-55
2022/12/23 10:40:04;;;;;;;13.07;6.65;;;26.80;84.60;;;;;;5104312;28;20030;-54
2022/12/23 10:42:42;;;;;;;11.18;6.07;;;26.80;84.60;;;;;;5048646;28;20040;-55
2022/12/23 10:45:44;;;;;;;12.50;6.53;;;26.80;84.60;;;;;;5103868;28;20024;-53
2022/12/23 10:48:28;;;;;;;13.13;6.10;;;26.80;84.60;;;;;;5099130;28;20333;-55
2022/12/23 10:51:06;;;;;;;12.30;6.50;;;26.70;84.40;;;;;;5103868;28;20063;-56
2022/12/23 10:53:42;;;;;;;12.98;6.40;;;26.80;84.30;;;;;;5104052;28;20028;-53
2022/12/23 10:56:10;;;;;;;14.88;6.25;;;26.80;84.30;;;;;;5104236;28;20020;-55
2022/12/23 10:58:41;;;;;;;10.55;6.18;;;26.80;84.20;;;;;;5104059;28;20078;-55
2022/12/23 11:01:15;;;;;;;9.27;5.90;;;26.80;84.00;;;;;;5106603;28;20141;-56
2022/12/23 11:03:48;;;;;;;13.27;6.00;;;26.80;84.20;;;;;;5108270;28;20027;-55
2022/12/23 11:06:15;;;;;;;17.35;6.20;;;26.80;83.80;;;;;;5107402;28;20039;-56
2022/12/23 11:08:42;;;;;;;17.48;6.35;;;26.80;83.60;;;;;;5107817;28;20073;-55
2022/12/23 11:11:08;;;;;;;12.85;5.63;;;26.80;83.40;;;;;;5107927;28;20040;-55
2022/12/23 11:13:38;;;;;;;17.30;6.28;;;26.80;83.40;;;;;;5107955;28;20012;-54
2022/12/23 11:16:21;;;;;;;14.77;5.82;;;26.80;83.60;;;;;;5108008;28;20036;-56
2022/12/23 11:19:13;;;;;;;16.08;6.03;;;26.80;83.80;;;;;;5108007;28;20028;-53
2022/12/23 11:21:54;;;;;;;17.13;6.10;;;26.80;83.80;;;;;;5107254;28;20044;-56
2022/12/23 11:24:22;;;;;;;15.25;6.20;;;26.80;83.70;;;;;;5102103;28;20062;-55
2022/12/23 11:26:58;;;;;;;20.13;6.05;;;26.80;84.00;;;;;;5102300;28;20095;-55
2022/12/23 11:29:32;;;;;;;16.02;6.38;;;26.80;84.20;;;;;;5095136;28;20024;-55
2022/12/23 11:32:00;;;;;;;14.70;6.15;;;26.70;84.10;;;;;;5085582;28;20096;-55
2022/12/23 11:34:36;;;;;;;13.98;6.72;;;26.80;84.10;;;;;;5095102;28;20343;-54
2022/12/23 11:37:03;;;;;;;14.40;6.20;;;26.80;84.00;;;;;;5097047;28;20036;-55
2022/12/23 11:39:36;;;;;;;17.15;6.30;;;26.80;84.00;;;;;;5085469;28;20067;-53
2022/12/23 11:42:17;;;;;;;14.25;6.28;;;26.80;84.00;;;;;;5085527;28;20147;-51
2022/12/23 11:44:54;;;;;;;16.05;6.55;;;26.90;84.10;;;;;;5085328;28;20035;-53
2022/12/23 11:47:30;;;;;;;14.98;6.60;;;26.90;84.10;;;;;;5088483;28;20036;-54
2022/12/23 11:49:59;;;;;;;22.25;6.57;;;26.90;84.10;;;;;;5109322;28;20044;-55
2022/12/23 11:52:28;;;;;;;19.30;6.75;;;26.90;84.10;;;;;;5092650;28;20052;-54
2022/12/23 11:54:58;;;;;;;22.25;6.85;;;26.90;84.00;;;;;;5087035;28;20084;-54
2022/12/23 11:57:46;;;;;;;16.23;6.43;;;26.90;84.00;;;;;;5087096;28;20029;-54
2022/12/23 12:00:39;;;;;;;17.40;6.47;;;27.00;84.10;;;;;;5086656;28;20379;-55
2022/12/23 12:03:14;;;;;;;11.20;6.22;;;27.00;84.20;;;;;;5078094;28;20037;-55
2022/12/23 12:05:48;;;;;;;12.95;5.93;;;27.00;84.40;;;;;;5086637;28;20078;-54
2022/12/23 12:08:21;;;;;;;17.88;5.90;;;27.10;84.30;;;;;;5086443;28;20029;-54
2022/12/23 12:10:51;;;;;;;14.73;7.20;;;27.10;84.10;;;;;;5097933;28;20091;-55
2022/12/23 12:13:30;;;;;;;18.27;6.88;;;27.10;84.20;;;;;;5093545;28;20320;-55
2022/12/23 12:16:31;;;;;;;17.92;7.00;;;27.20;84.30;;;;;;5087039;28;20024;-56
2022/12/23 12:19:10;;;;;;;18.55;6.90;;;27.20;84.30;;;;;;5062942;28;20041;-56
2022/12/23 12:21:38;;;;;;;16.63;6.97;;;27.20;84.20;;;;;;5096710;28;20036;-56
2022/12/23 12:24:15;;;;;;;17.55;6.97;;;27.30;84.30;;;;;;5101657;28;20032;-52
2022/12/23 12:26:49;;;;;;;16.10;6.72;;;27.30;84.10;;;;;;5113106;28;20027;-55
2022/12/23 12:29:36;;;;;;;18.45;6.22;;;27.40;84.00;;;;;;5106768;28;20346;-55
2022/12/23 12:32:09;;;;;;;12.82;6.43;;;27.40;83.90;;;;;;5106683;28;20036;-58
2022/12/23 12:35:05;;;;;;;12.38;6.50;;;27.40;84.10;;;;;;5099957;28;20020;-54
2022/12/23 12:38:00;;;;;;;13.32;6.82;;;27.40;84.00;;;;;;5119379;28;20048;-56
2022/12/23 12:40:41;;;;;;;12.30;6.53;;;27.50;84.20;;;;;;5097154;28;20052;-54
2022/12/23 12:43:17;;;;;;;19.77;6.88;;;27.50;84.00;;;;;;5105828;28;20320;-53
2022/12/23 12:46:05;;;;;;;16.80;7.10;;;27.50;84.20;;;;;;5106103;28;20118;-54
2022/12/23 12:49:03;;;;;;;16.13;6.78;;;27.50;84.20;;;;;;5105774;28;20059;-56
2022/12/23 12:51:51;;;;;;;18.92;6.95;;;27.50;84.20;;;;;;5105921;28;20308;-55
2022/12/23 12:54:34;;;;;;;14.93;6.45;;;27.50;84.30;;;;;;5106201;28;20074;-54
2022/12/23 12:57:02;;;;;;;18.40;6.68;;;27.60;84.40;;;;;;5109239;28;20198;-53
2022/12/23 12:59:34;;;;;;;18.08;6.38;;;27.60;84.50;;;;;;5092900;28;20051;-56
2022/12/23 13:02:10;;;;;;;16.63;6.70;;;27.60;84.90;;;;;;5096498;28;20077;-55
2022/12/23 13:04:36;;;;;;;23.17;7.13;;;27.60;84.80;;;;;;5085605;28;20264;-58
2022/12/23 13:07:23;;;;;;;18.20;8.50;;;27.60;84.90;;;;;;5097233;28;20063;-55
2022/12/23 13:10:08;;;;;;;17.08;7.72;;;27.60;84.90;;;;;;5085601;28;20324;-55
2022/12/23 13:13:03;;;;;;;20.67;7.82;;;27.60;85.00;;;;;;5085796;28;20312;-55
2022/12/23 13:15:57;;;;;;;14.20;6.95;;;27.60;84.80;;;;;;5074862;28;20028;-54
2022/12/23 13:18:48;;;;;;;20.75;6.63;;;27.70;84.60;;;;;;5087105;28;20273;-56
2022/12/23 13:21:23;;;;;;;15.20;7.25;;;27.70;84.30;;;;;;5103150;28;20035;-53
2022/12/23 13:23:53;;;;;;;12.95;6.35;;;27.70;84.00;;;;;;5093835;28;20219;-53
2022/12/23 13:26:32;;;;;;;14.68;6.90;;;27.70;84.10;;;;;;5105282;28;20126;-56
2022/12/23 13:29:07;;;;;;;16.52;7.10;;;27.70;84.20;;;;;;5105239;28;20095;-55
2022/12/23 13:32:16;;;;;;;16.73;6.85;;;27.80;84.30;;;;;;5105046;28;20028;-55
2022/12/23 13:35:18;;;;;;;13.93;6.85;;;27.80;84.40;;;;;;5060621;28;20320;-56
2022/12/23 13:38:03;;;;;;;9.80;6.53;;;27.80;84.60;;;;;;5125887;28;20307;-57
2022/12/23 13:40:40;;;;;;;14.52;6.70;;;27.90;84.70;;;;;;5125930;28;20027;-55